Time;durP1;ratioP1;P1;durP2;ratioP2;P2;SDS_P1;SDS_P2;PMS_P1;PMS_P2;Temp;Humidity;BMP_temperature;BMP_pressure;BME280_temperature;BME280_humidity;BME280_pressure;Samples;Min_cycle;Max_cycle;Signal;HPM_P1;HPM_P2
2021/06/28 00:00:19;;;;;;;2.55;1.42;;;;;;;;;;4896062;29;20036;-41
2021/06/28 00:02:45;;;;;;;1.17;1.08;;;;;;;;;;4897026;29;20028;-41
2021/06/28 00:05:11;;;;;;;3.17;1.42;;;;;;;;;;4897418;29;20024;-41
2021/06/28 00:07:37;;;;;;;1.92;1.15;;;;;;;;;;4895775;29;20032;-41
2021/06/28 00:10:03;;;;;;;1.55;1.45;;;;;;;;;;4897190;29;20486;-41
2021/06/28 00:12:28;;;;;;;1.65;1.10;;;;;;;;;;4897240;29;20124;-42
2021/06/28 00:14:54;;;;;;;4.20;1.27;;;;;;;;;;4897332;29;20082;-42
2021/06/28 00:17:19;;;;;;;1.92;1.10;;;;;;;;;;4900563;29;20092;-41
2021/06/28 00:19:44;;;;;;;1.40;1.30;;;;;;;;;;4900861;29;20021;-41
2021/06/28 00:22:10;;;;;;;1.63;1.52;;;;;;;;;;4899408;29;20037;-41
2021/06/28 00:24:35;;;;;;;1.85;1.58;;;;;;;;;;4900866;29;20509;-41
2021/06/28 00:27:00;;;;;;;1.88;1.55;;;;;;;;;;4900951;29;20399;-40
2021/06/28 00:29:26;;;;;;;1.48;1.38;;;;;;;;;;4900519;29;20079;-41
2021/06/28 00:31:55;;;;;;;3.35;1.83;;;;;;;;;;4900740;29;20468;-41
2021/06/28 00:34:20;;;;;;;2.15;1.60;;;;;;;;;;4900359;29;20056;-41
2021/06/28 00:36:45;;;;;;;1.90;1.30;;;;;;;;;;4899300;29;20071;-41
2021/06/28 00:39:11;;;;;;;4.22;1.30;;;;;;;;;;4898907;29;20096;-41
2021/06/28 00:41:36;;;;;;;3.00;1.80;;;;;;;;;;4900328;29;20076;-41
2021/06/28 00:44:01;;;;;;;3.58;1.85;;;;;;;;;;4900705;29;20081;-41
2021/06/28 00:46:27;;;;;;;1.45;1.30;;;;;;;;;;4900153;29;20559;-41
2021/06/28 00:48:52;;;;;;;5.38;1.42;;;;;;;;;;4900266;29;20032;-41
2021/06/28 00:51:17;;;;;;;1.73;1.42;;;;;;;;;;4900205;29;20120;-40
2021/06/28 00:53:43;;;;;;;1.33;1.23;;;;;;;;;;4900295;29;20048;-41
2021/06/28 00:56:09;;;;;;;1.33;1.20;;;;;;;;;;4900189;29;20040;-41
2021/06/28 00:58:38;;;;;;;2.22;1.30;;;;;;;;;;4900023;29;20025;-41
2021/06/28 01:01:03;;;;;;;1.73;1.60;;;;;;;;;;4900228;29;20112;-41
2021/06/28 01:03:29;;;;;;;2.08;1.85;;;;;;;;;;4899964;29;20108;-42
2021/06/28 01:05:54;;;;;;;1.80;1.65;;;;;;;;;;4899906;29;20036;-46
2021/06/28 01:08:20;;;;;;;3.67;2.03;;;;;;;;;;4899685;29;20111;-40
2021/06/28 01:10:45;;;;;;;1.25;1.15;;;;;;;;;;4899816;29;20131;-41
2021/06/28 01:13:10;;;;;;;2.88;1.52;;;;;;;;;;4899797;29;20032;-41
2021/06/28 01:15:36;;;;;;;1.90;1.33;;;;;;;;;;4899784;29;20041;-41
2021/06/28 01:18:03;;;;;;;4.72;1.50;;;;;;;;;;4900012;29;20076;-41
2021/06/28 01:20:28;;;;;;;2.97;1.48;;;;;;;;;;4899740;29;20107;-41
2021/06/28 01:22:55;;;;;;;1.92;1.55;;;;;;;;;;4899583;29;20107;-42
2021/06/28 01:25:21;;;;;;;6.55;2.05;;;;;;;;;;4899558;29;20112;-41
2021/06/28 01:27:47;;;;;;;2.05;1.85;;;;;;;;;;4899089;29;20025;-41
2021/06/28 01:30:15;;;;;;;5.28;1.25;;;;;;;;;;4899469;29;20396;-42
2021/06/28 01:32:42;;;;;;;1.50;1.40;;;;;;;;;;4899422;29;20120;-41
2021/06/28 01:35:07;;;;;;;2.30;1.58;;;;;;;;;;4899436;29;20032;-41
2021/06/28 01:37:33;;;;;;;1.58;1.48;;;;;;;;;;4899502;29;20017;-42
2021/06/28 01:40:00;;;;;;;3.17;1.38;;;;;;;;;;4898180;29;20632;-41
2021/06/28 01:42:26;;;;;;;3.25;1.55;;;;;;;;;;4899133;29;20064;-41
2021/06/28 01:44:52;;;;;;;2.50;1.50;;;;;;;;;;4899623;29;20029;-41
2021/06/28 01:47:18;;;;;;;1.65;1.45;;;;;;;;;;4899518;29;20035;-41
2021/06/28 01:49:44;;;;;;;3.03;1.48;;;;;;;;;;4899082;29;20037;-41
2021/06/28 01:52:09;;;;;;;2.30;1.70;;;;;;;;;;4898910;29;20376;-41
2021/06/28 01:54:35;;;;;;;1.52;1.42;;;;;;;;;;4899016;29;20037;-41
2021/06/28 01:57:01;;;;;;;1.45;1.35;;;;;;;;;;4899081;29;20032;-42
2021/06/28 01:59:29;;;;;;;2.35;1.55;;;;;;;;;;4899223;29;20437;-40
2021/06/28 02:01:54;;;;;;;1.80;1.70;;;;;;;;;;4898936;29;20021;-41
2021/06/28 02:04:20;;;;;;;4.70;2.17;;;;;;;;;;4898868;29;20043;-41
2021/06/28 02:06:45;;;;;;;2.90;1.42;;;;;;;;;;4898964;29;20036;-41
2021/06/28 02:09:10;;;;;;;3.20;1.67;;;;;;;;;;4899122;29;20208;-41
2021/06/28 02:11:36;;;;;;;1.58;1.48;;;;;;;;;;4898892;29;20483;-40
2021/06/28 02:14:01;;;;;;;2.25;1.52;;;;;;;;;;4897547;29;20476;-41
2021/06/28 02:16:26;;;;;;;1.80;1.50;;;;;;;;;;4898712;29;20084;-41
2021/06/28 02:18:52;;;;;;;2.30;1.30;;;;;;;;;;4898921;29;20033;-41
2021/06/28 02:21:17;;;;;;;2.05;1.42;;;;;;;;;;4898692;29;20472;-42
2021/06/28 02:23:42;;;;;;;2.00;1.50;;;;;;;;;;4898793;29;20489;-41
2021/06/28 02:26:09;;;;;;;1.48;1.38;;;;;;;;;;4898725;29;20020;-41
2021/06/28 02:28:36;;;;;;;1.55;1.38;;;;;;;;;;4898412;29;20032;-41
2021/06/28 02:31:03;;;;;;;3.10;1.52;;;;;;;;;;4898437;29;20036;-41
2021/06/28 02:33:28;;;;;;;7.43;2.33;;;;;;;;;;4898232;29;20472;-41
2021/06/28 02:35:54;;;;;;;2.22;1.67;;;;;;;;;;4898326;29;20032;-41
2021/06/28 02:38:20;;;;;;;2.05;1.60;;;;;;;;;;4897316;29;20053;-40
2021/06/28 02:40:45;;;;;;;2.90;1.80;;;;;;;;;;4898195;29;20025;-40
2021/06/28 02:43:10;;;;;;;1.60;1.50;;;;;;;;;;4898403;29;20037;-41
2021/06/28 02:45:36;;;;;;;3.75;2.15;;;;;;;;;;4898114;29;20436;-42
2021/06/28 02:48:02;;;;;;;2.10;1.70;;;;;;;;;;4898349;29;20048;-42
2021/06/28 02:50:27;;;;;;;4.50;2.03;;;;;;;;;;4898206;29;20118;-41
2021/06/28 02:52:53;;;;;;;11.45;2.05;;;;;;;;;;4898008;29;20046;-41
2021/06/28 02:55:18;;;;;;;1.67;1.50;;;;;;;;;;4897949;29;20128;-40
2021/06/28 02:57:44;;;;;;;2.22;1.60;;;;;;;;;;4898122;29;20091;-41
2021/06/28 03:00:14;;;;;;;4.43;1.35;;;;;;;;;;4898190;29;20487;-41
2021/06/28 03:02:40;;;;;;;1.52;1.23;;;;;;;;;;4897756;29;20024;-42
2021/06/28 03:05:06;;;;;;;1.88;1.50;;;;;;;;;;4898212;29;20076;-41
2021/06/28 03:07:32;;;;;;;3.45;1.50;;;;;;;;;;4896751;29;20025;-42
2021/06/28 03:09:57;;;;;;;2.72;1.90;;;;;;;;;;4897938;29;20043;-41
2021/06/28 03:12:22;;;;;;;3.03;1.77;;;;;;;;;;4897535;29;20127;-41
2021/06/28 03:14:48;;;;;;;3.30;1.55;;;;;;;;;;4897677;29;20024;-41
2021/06/28 03:17:13;;;;;;;2.85;1.70;;;;;;;;;;4897677;29;20072;-41
2021/06/28 03:19:39;;;;;;;1.58;1.48;;;;;;;;;;4897630;29;20115;-41
2021/06/28 03:22:04;;;;;;;3.92;1.58;;;;;;;;;;4897454;29;20033;-41
2021/06/28 03:24:29;;;;;;;1.80;1.42;;;;;;;;;;4897530;29;20083;-41
2021/06/28 03:26:55;;;;;;;2.10;1.90;;;;;;;;;;4897505;29;20033;-41
2021/06/28 03:29:20;;;;;;;2.28;1.92;;;;;;;;;;4897416;29;20072;-41
2021/06/28 03:31:45;;;;;;;4.65;1.75;;;;;;;;;;4897380;29;20037;-42
2021/06/28 03:34:11;;;;;;;1.63;1.48;;;;;;;;;;4897466;29;20032;-41
2021/06/28 03:36:36;;;;;;;1.45;1.35;;;;;;;;;;4897305;29;20032;-41
2021/06/28 03:39:02;;;;;;;4.13;1.85;;;;;;;;;;4897287;29;20052;-41
2021/06/28 03:41:27;;;;;;;1.90;1.55;;;;;;;;;;4897198;29;20040;-41
2021/06/28 03:43:53;;;;;;;1.48;1.38;;;;;;;;;;4896108;29;20084;-42
2021/06/28 03:46:18;;;;;;;2.17;1.40;;;;;;;;;;4897244;29;20092;-42
2021/06/28 03:48:44;;;;;;;2.80;1.92;;;;;;;;;;4897101;29;20020;-41
2021/06/28 03:51:10;;;;;;;1.92;1.67;;;;;;;;;;4895754;29;20036;-41
2021/06/28 03:53:35;;;;;;;1.30;1.20;;;;;;;;;;4897195;29;20032;-42
2021/06/28 03:56:06;;;;;;;3.50;1.40;;;;;;;;;;4897504;29;20033;-41
2021/06/28 03:58:43;;;;;;;2.08;1.50;;;;;;;;;;4897214;29;20056;-41
2021/06/28 04:01:08;;;;;;;1.60;1.50;;;;;;;;;;4897243;29;20029;-41
2021/06/28 04:03:37;;;;;;;2.00;1.80;;;;;;;;;;4897340;29;20532;-41
2021/06/28 04:06:05;;;;;;;3.15;1.67;;;;;;;;;;4897336;29;20037;-41
2021/06/28 04:08:31;;;;;;;1.60;1.50;;;;;;;;;;4896988;29;20084;-41
2021/06/28 04:10:56;;;;;;;1.50;1.40;;;;;;;;;;4897252;29;20037;-41
2021/06/28 04:13:22;;;;;;;1.60;1.50;;;;;;;;;;4897265;29;20464;-41
2021/06/28 04:15:47;;;;;;;1.60;1.50;;;;;;;;;;4897328;29;20100;-42
2021/06/28 04:18:13;;;;;;;1.73;1.63;;;;;;;;;;4897066;29;20376;-42
2021/06/28 04:20:38;;;;;;;3.88;1.63;;;;;;;;;;4896893;29;20119;-41
2021/06/28 04:23:04;;;;;;;2.42;1.70;;;;;;;;;;4897187;29;20104;-41
2021/06/28 04:25:29;;;;;;;2.25;1.55;;;;;;;;;;4897184;29;20515;-42
2021/06/28 04:27:54;;;;;;;2.13;1.90;;;;;;;;;;4896922;29;20027;-42
2021/06/28 04:30:20;;;;;;;2.47;1.33;;;;;;;;;;4896923;29;20076;-41
2021/06/28 04:32:46;;;;;;;6.38;1.80;;;;;;;;;;4897105;29;20104;-42
2021/06/28 04:35:13;;;;;;;12.60;1.80;;;;;;;;;;4896800;29;20179;-41
2021/06/28 04:37:40;;;;;;;5.25;1.73;;;;;;;;;;4896884;29;20016;-42
2021/06/28 04:40:06;;;;;;;2.15;1.67;;;;;;;;;;4895639;29;20052;-41
2021/06/28 04:42:32;;;;;;;4.43;2.00;;;;;;;;;;4895711;29;20044;-41
2021/06/28 04:44:57;;;;;;;6.95;1.50;;;;;;;;;;4896823;29;20037;-42
2021/06/28 04:47:22;;;;;;;1.75;1.65;;;;;;;;;;4896621;29;20017;-41
2021/06/28 04:49:48;;;;;;;1.85;1.60;;;;;;;;;;4896790;29;20037;-41
2021/06/28 04:52:13;;;;;;;1.63;1.50;;;;;;;;;;4897028;29;20016;-41
2021/06/28 04:54:38;;;;;;;2.00;1.67;;;;;;;;;;4895345;29;20369;-42
2021/06/28 04:57:04;;;;;;;2.90;1.80;;;;;;;;;;4896768;29;20448;-42
2021/06/28 04:59:29;;;;;;;3.90;1.60;;;;;;;;;;4896551;29;20123;-41
2021/06/28 05:01:54;;;;;;;1.77;1.55;;;;;;;;;;4897878;29;20025;-42
2021/06/28 05:04:20;;;;;;;1.80;1.70;;;;;;;;;;4900131;29;20033;-42
2021/06/28 05:06:47;;;;;;;1.92;1.58;;;;;;;;;;4899979;29;20021;-42
2021/06/28 05:09:13;;;;;;;1.85;1.50;;;;;;;;;;4900154;29;20059;-41
2021/06/28 05:11:38;;;;;;;2.67;1.98;;;;;;;;;;4899812;29;20503;-41
2021/06/28 05:14:04;;;;;;;4.13;1.30;;;;;;;;;;4899881;29;20095;-42
2021/06/28 05:16:29;;;;;;;1.88;1.65;;;;;;;;;;4900017;29;20032;-41
2021/06/28 05:18:55;;;;;;;8.43;3.05;;;;;;;;;;4899663;29;20436;-41
2021/06/28 05:21:20;;;;;;;7.07;1.75;;;;;;;;;;4899957;29;20501;-41
2021/06/28 05:23:45;;;;;;;2.05;1.60;;;;;;;;;;4899594;29;20036;-41
2021/06/28 05:26:11;;;;;;;2.75;1.77;;;;;;;;;;4898468;29;20024;-41
2021/06/28 05:28:36;;;;;;;3.88;2.78;;;;;;;;;;4899561;29;20046;-41
2021/06/28 05:31:03;;;;;;;1.90;1.70;;;;;;;;;;4899769;29;20028;-42
2021/06/28 05:33:29;;;;;;;4.72;1.70;;;;;;;;;;4899309;29;20033;-41
2021/06/28 05:35:54;;;;;;;1.92;1.45;;;;;;;;;;4899638;29;20106;-43
2021/06/28 05:38:20;;;;;;;2.40;1.80;;;;;;;;;;4897985;29;20461;-42
2021/06/28 05:40:45;;;;;;;2.22;1.92;;;;;;;;;;4899239;29;20487;-42
2021/06/28 05:43:10;;;;;;;2.40;1.48;;;;;;;;;;4899351;29;20543;-42
2021/06/28 05:45:36;;;;;;;1.65;1.55;;;;;;;;;;4899512;29;20032;-43
2021/06/28 05:48:01;;;;;;;1.90;1.70;;;;;;;;;;4897995;29;20119;-42
2021/06/28 05:50:27;;;;;;;2.17;1.75;;;;;;;;;;4899337;29;20029;-42
2021/06/28 05:52:52;;;;;;;2.10;1.90;;;;;;;;;;4899176;29;20111;-41
2021/06/28 05:55:18;;;;;;;1.60;1.50;;;;;;;;;;4899172;29;20048;-41
2021/06/28 05:57:43;;;;;;;1.65;1.55;;;;;;;;;;4897807;29;20122;-41
2021/06/28 06:00:10;;;;;;;3.40;1.83;;;;;;;;;;4899072;29;20025;-41
2021/06/28 06:02:40;;;;;;;1.98;1.67;;;;;;;;;;4898817;29;20559;-41
2021/06/28 06:05:08;;;;;;;3.20;1.70;;;;;;;;;;4898992;29;20120;-41
2021/06/28 06:07:37;;;;;;;4.93;1.90;;;;;;;;;;4898818;29;20029;-41
2021/06/28 06:10:03;;;;;;;4.45;1.50;;;;;;;;;;4899093;29;20121;-41
2021/06/28 06:12:29;;;;;;;2.45;1.55;;;;;;;;;;4898835;29;20032;-41
2021/06/28 06:14:54;;;;;;;2.03;1.90;;;;;;;;;;4898705;29;20032;-41
2021/06/28 06:17:19;;;;;;;1.88;1.70;;;;;;;;;;4897625;29;20111;-41
2021/06/28 06:19:45;;;;;;;1.80;1.65;;;;;;;;;;4898849;29;20391;-41
2021/06/28 06:22:10;;;;;;;3.70;1.58;;;;;;;;;;4898541;29;20495;-42
2021/06/28 06:24:36;;;;;;;1.83;1.55;;;;;;;;;;4898840;29;20025;-41
2021/06/28 06:27:01;;;;;;;6.15;2.15;;;;;;;;;;4898544;29;20112;-41
2021/06/28 06:29:27;;;;;;;1.67;1.55;;;;;;;;;;4898376;29;20486;-41
2021/06/28 06:31:53;;;;;;;3.38;1.65;;;;;;;;;;4898730;29;20055;-41
2021/06/28 06:34:18;;;;;;;3.38;1.45;;;;;;;;;;4898326;29;20354;-41
2021/06/28 06:36:43;;;;;;;3.47;1.70;;;;;;;;;;4898617;29;20048;-41
2021/06/28 06:39:09;;;;;;;2.33;1.60;;;;;;;;;;4898276;29;20131;-41
2021/06/28 06:41:35;;;;;;;1.70;1.60;;;;;;;;;;4898140;29;20024;-41
2021/06/28 06:44:00;;;;;;;1.65;1.52;;;;;;;;;;4897143;29;20181;-41
2021/06/28 06:46:25;;;;;;;4.00;2.08;;;;;;;;;;4898432;29;20033;-41
2021/06/28 06:48:51;;;;;;;2.03;1.75;;;;;;;;;;4898038;29;20543;-41
2021/06/28 06:51:17;;;;;;;2.28;1.60;;;;;;;;;;4898429;29;20029;-40
2021/06/28 06:53:43;;;;;;;1.30;1.20;;;;;;;;;;4898251;29;20044;-41
2021/06/28 06:56:09;;;;;;;1.45;1.35;;;;;;;;;;4898006;29;20091;-41
2021/06/28 06:58:34;;;;;;;2.70;1.67;;;;;;;;;;4896648;29;20024;-41
2021/06/28 07:01:00;;;;;;;4.45;1.67;;;;;;;;;;4897992;29;20047;-41
2021/06/28 07:03:25;;;;;;;4.07;2.00;;;;;;;;;;4896562;29;20032;-41
2021/06/28 07:05:50;;;;;;;1.55;1.40;;;;;;;;;;4897843;29;20052;-41
2021/06/28 07:08:16;;;;;;;2.20;1.77;;;;;;;;;;4897976;29;20028;-41
2021/06/28 07:10:42;;;;;;;3.92;1.58;;;;;;;;;;4897803;29;20045;-41
2021/06/28 07:13:08;;;;;;;1.88;1.40;;;;;;;;;;4898047;29;20138;-41
2021/06/28 07:15:33;;;;;;;2.55;2.15;;;;;;;;;;4897654;29;20495;-41
2021/06/28 07:17:58;;;;;;;1.77;1.63;;;;;;;;;;4897627;29;20027;-41
2021/06/28 07:20:24;;;;;;;1.77;1.58;;;;;;;;;;4897802;29;20040;-41
2021/06/28 07:22:53;;;;;;;1.40;1.08;;;;;;;;;;4897841;29;20024;-42
2021/06/28 07:25:18;;;;;;;10.35;1.58;;;;;;;;;;4897330;29;20052;-41
2021/06/28 07:27:44;;;;;;;3.33;1.38;;;;;;;;;;4897709;29;20187;-41
2021/06/28 07:30:11;;;;;;;2.28;1.60;;;;;;;;;;4897376;29;20055;-42
2021/06/28 07:32:37;;;;;;;1.60;1.50;;;;;;;;;;4897395;29;20545;-41
2021/06/28 07:35:03;;;;;;;6.63;1.80;;;;;;;;;;4897685;29;20044;-43
2021/06/28 07:37:28;;;;;;;1.42;1.33;;;;;;;;;;4897496;29;20430;-42
2021/06/28 07:39:54;;;;;;;2.38;1.52;;;;;;;;;;4896126;29;20128;-43
2021/06/28 07:42:19;;;;;;;1.50;1.40;;;;;;;;;;4897549;29;20036;-41
2021/06/28 07:44:45;;;;;;;1.70;1.58;;;;;;;;;;4897254;29;20031;-41
2021/06/28 07:47:10;;;;;;;1.50;1.40;;;;;;;;;;4897509;29;20464;-41
2021/06/28 07:49:36;;;;;;;5.32;1.58;;;;;;;;;;4897317;29;20044;-41
2021/06/28 07:52:01;;;;;;;1.45;1.35;;;;;;;;;;4897521;29;20043;-42
2021/06/28 07:54:28;;;;;;;2.97;2.10;;;;;;;;;;4897168;29;20028;-41
2021/06/28 07:56:53;;;;;;;2.25;1.52;;;;;;;;;;4897204;29;20032;-41
2021/06/28 07:59:19;;;;;;;2.40;1.38;;;;;;;;;;4897394;29;20416;-41
2021/06/28 08:01:44;;;;;;;2.13;1.73;;;;;;;;;;4897049;29;20045;-42
2021/06/28 08:04:10;;;;;;;2.10;1.80;;;;;;;;;;4897454;29;20060;-42
2021/06/28 08:06:36;;;;;;;2.17;1.50;;;;;;;;;;4897064;29;20448;-42
2021/06/28 08:09:03;;;;;;;2.60;1.67;;;;;;;;;;4897253;29;20063;-42
2021/06/28 08:11:28;;;;;;;1.70;1.60;;;;;;;;;;4896961;29;20021;-42
2021/06/28 08:13:54;;;;;;;1.73;1.50;;;;;;;;;;4896953;29;20139;-41
2021/06/28 08:16:20;;;;;;;3.88;1.92;;;;;;;;;;4897119;29;20092;-42
2021/06/28 08:18:48;;;;;;;2.25;1.90;;;;;;;;;;4897222;29;20036;-42
2021/06/28 08:21:14;;;;;;;1.73;1.63;;;;;;;;;;4896932;29;20076;-43
2021/06/28 08:23:39;;;;;;;2.35;1.42;;;;;;;;;;4896916;29;20033;-42
2021/06/28 08:26:05;;;;;;;1.85;1.27;;;;;;;;;;4895726;29;20025;-42
2021/06/28 08:28:30;;;;;;;2.65;1.30;;;;;;;;;;4896833;29;20040;-42
2021/06/28 08:30:56;;;;;;;4.00;1.92;;;;;;;;;;4897150;29;20036;-42
2021/06/28 08:33:21;;;;;;;4.50;1.63;;;;;;;;;;4896954;29;20032;-43
2021/06/28 08:35:47;;;;;;;2.08;1.55;;;;;;;;;;4897054;29;20028;-42
2021/06/28 08:38:13;;;;;;;1.90;1.67;;;;;;;;;;4900159;29;20049;-42
2021/06/28 08:40:38;;;;;;;2.47;1.70;;;;;;;;;;4900407;29;20488;-42
2021/06/28 08:43:04;;;;;;;2.22;1.33;;;;;;;;;;4900499;29;20081;-41
2021/06/28 08:45:33;;;;;;;9.32;1.90;;;;;;;;;;4900585;29;20047;-42
2021/06/28 08:47:58;;;;;;;1.90;1.60;;;;;;;;;;4900418;29;20033;-41
2021/06/28 08:50:24;;;;;;;1.73;1.52;;;;;;;;;;4898886;29;20036;-41
2021/06/28 08:52:49;;;;;;;4.38;1.55;;;;;;;;;;4898920;29;20036;-41
2021/06/28 08:55:14;;;;;;;1.52;1.42;;;;;;;;;;4900322;29;20052;-41
2021/06/28 08:57:40;;;;;;;2.05;1.13;;;;;;;;;;4900249;29;20037;-42
2021/06/28 09:00:10;;;;;;;1.88;1.77;;;;;;;;;;4900139;29;20468;-41
2021/06/28 09:02:35;;;;;;;2.20;2.00;;;;;;;;;;4900266;29;20037;-42
2021/06/28 09:05:06;;;;;;;1.83;1.50;;;;;;;;;;4898839;29;20027;-42
2021/06/28 09:07:32;;;;;;;1.17;1.00;;;;;;;;;;4900233;29;20396;-41
2021/06/28 09:09:57;;;;;;;3.13;1.42;;;;;;;;;;4900151;29;20040;-41
2021/06/28 09:12:23;;;;;;;1.38;0.95;;;;;;;;;;4899835;29;20116;-41
2021/06/28 09:14:59;;;;;;;1.15;1.05;;;;;;;;;;4899870;29;20052;-42
2021/06/28 09:17:29;;;;;;;2.15;1.15;;;;;;;;;;4898618;29;20388;-42
2021/06/28 09:20:13;;;;;;;2.53;1.33;;;;;;;;;;4899752;29;20095;-42
2021/06/28 09:22:39;;;;;;;3.00;1.25;;;;;;;;;;4899795;29;20032;-41
2021/06/28 09:25:07;;;;;;;3.80;1.45;;;;;;;;;;4899639;29;20023;-42
2021/06/28 09:27:40;;;;;;;1.38;1.27;;;;;;;;;;4898323;29;20476;-42
2021/06/28 09:30:13;;;;;;;2.90;1.48;;;;;;;;;;4899558;29;20119;-42
2021/06/28 09:32:49;;;;;;;1.40;1.30;;;;;;;;;;4898316;29;20091;-42
2021/06/28 09:35:26;;;;;;;1.70;1.30;;;;;;;;;;4899509;29;20100;-42
2021/06/28 09:37:52;;;;;;;1.40;1.30;;;;;;;;;;4899368;29;20036;-42
2021/06/28 09:40:22;;;;;;;11.63;1.98;;;;;;;;;;4898090;29;20036;-42
2021/06/28 09:42:48;;;;;;;2.22;1.58;;;;;;;;;;4899312;29;20499;-42
2021/06/28 09:45:15;;;;;;;2.35;1.77;;;;;;;;;;4899347;29;20021;-42
2021/06/28 09:47:41;;;;;;;2.67;1.80;;;;;;;;;;4897546;29;20107;-42
2021/06/28 09:50:10;;;;;;;1.95;1.40;;;;;;;;;;4899470;29;20111;-42
2021/06/28 09:52:37;;;;;;;2.22;1.20;;;;;;;;;;4897914;29;20661;-42
2021/06/28 09:55:21;;;;;;;1.30;1.20;;;;;;;;;;4899218;29;20499;-42
2021/06/28 09:58:05;;;;;;;1.45;1.35;;;;;;;;;;4899638;29;20052;-41
2021/06/28 10:00:36;;;;;;;3.22;1.40;;;;;;;;;;4899150;29;20380;-41
2021/06/28 10:03:02;;;;;;;1.50;1.10;;;;;;;;;;4899020;29;20036;-41
2021/06/28 10:05:39;;;;;;;2.08;1.60;;;;;;;;;;4898966;29;20024;-42
2021/06/28 10:08:15;;;;;;;4.15;1.58;;;;;;;;;;4899210;29;20032;-42
2021/06/28 10:10:41;;;;;;;1.20;1.10;;;;;;;;;;4897458;29;20052;-41
2021/06/28 10:13:07;;;;;;;1.58;1.33;;;;;;;;;;4897685;29;20024;-42
2021/06/28 10:15:34;;;;;;;1.75;1.27;;;;;;;;;;4898754;29;20033;-41
2021/06/28 10:17:59;;;;;;;1.40;1.30;;;;;;;;;;4898745;29;20479;-41
2021/06/28 10:20:27;;;;;;;2.55;1.58;;;;;;;;;;4898792;29;20036;-42
2021/06/28 10:22:53;;;;;;;1.92;1.58;;;;;;;;;;4898898;29;20048;-42
2021/06/28 10:25:21;;;;;;;1.52;1.42;;;;;;;;;;4898867;29;20079;-42
2021/06/28 10:27:47;;;;;;;1.27;1.17;;;;;;;;;;4898479;29;20116;-42
2021/06/28 10:30:14;;;;;;;4.13;1.42;;;;;;;;;;4898620;29;20074;-42
2021/06/28 10:32:40;;;;;;;2.20;1.40;;;;;;;;;;4898553;29;20021;-42
2021/06/28 10:35:07;;;;;;;4.70;1.35;;;;;;;;;;4898481;29;20700;-42
2021/06/28 10:37:46;;;;;;;1.77;1.58;;;;;;;;;;4898128;29;20463;-42
2021/06/28 10:40:22;;;;;;;1.67;1.40;;;;;;;;;;4898399;29;20051;-42
2021/06/28 10:42:49;;;;;;;1.88;1.50;;;;;;;;;;4898294;29;20029;-41
2021/06/28 10:45:16;;;;;;;1.40;1.30;;;;;;;;;;4898478;29;20047;-42
2021/06/28 10:48:02;;;;;;;1.15;1.08;;;;;;;;;;4898140;29;20106;-42
2021/06/28 10:50:46;;;;;;;1.20;1.10;;;;;;;;;;4897942;29;20535;-42
2021/06/28 10:53:11;;;;;;;2.05;1.58;;;;;;;;;;4898511;29;20080;-43
2021/06/28 10:55:37;;;;;;;1.55;1.45;;;;;;;;;;4898004;29;20754;-42
2021/06/28 10:58:21;;;;;;;6.80;1.38;;;;;;;;;;4898284;29;20040;-41
2021/06/28 11:00:51;;;;;;;1.45;1.35;;;;;;;;;;4897519;29;20120;-42
2021/06/28 11:03:22;;;;;;;2.92;1.73;;;;;;;;;;4898002;29;20031;-42
2021/06/28 11:06:06;;;;;;;4.05;1.10;;;;;;;;;;4897778;29;20579;-42
2021/06/28 11:08:32;;;;;;;1.70;1.10;;;;;;;;;;4896533;29;20369;-42
2021/06/28 11:10:57;;;;;;;5.45;1.20;;;;;;;;;;4897946;29;20043;-42
2021/06/28 11:13:25;;;;;;;2.05;1.48;;;;;;;;;;4897758;29;20039;-43
2021/06/28 11:15:50;;;;;;;1.55;1.20;;;;;;;;;;4897646;29;20029;-41
2021/06/28 11:18:29;;;;;;;1.58;1.13;;;;;;;;;;4897686;29;20036;-42
2021/06/28 11:20:54;;;;;;;2.88;1.08;;;;;;;;;;4897885;29;20088;-41
2021/06/28 11:23:19;;;;;;;1.15;1.00;;;;;;;;;;4897649;29;20036;-41
2021/06/28 11:25:49;;;;;;;2.55;1.60;;;;;;;;;;4897570;29;20107;-42
2021/06/28 11:28:25;;;;;;;1.25;1.15;;;;;;;;;;4897749;29;20072;-41
2021/06/28 11:30:50;;;;;;;1.25;0.98;;;;;;;;;;4897345;29;20044;-42
2021/06/28 11:33:16;;;;;;;1.70;1.20;;;;;;;;;;4897415;29;20029;-42
2021/06/28 11:35:41;;;;;;;1.20;1.10;;;;;;;;;;4897328;29;20032;-42
2021/06/28 11:38:12;;;;;;;1.60;1.08;;;;;;;;;;4897250;29;20041;-42
2021/06/28 11:40:39;;;;;;;3.83;1.08;;;;;;;;;;4897564;29;20075;-42
2021/06/28 11:43:06;;;;;;;2.03;1.10;;;;;;;;;;4897377;29;20448;-42
2021/06/28 11:45:47;;;;;;;4.25;1.05;;;;;;;;;;4897472;29;20396;-42
2021/06/28 11:48:30;;;;;;;1.40;1.30;;;;;;;;;;4897488;29;20035;-43
2021/06/28 11:50:56;;;;;;;;;;;;;;;;;;4897668;29;20202;-42
2021/06/28 11:53:21;;;;;;;0.90;0.90;;;;;;;;;;4897574;29;20061;-43
2021/06/28 11:55:47;;;;;;;4.45;1.73;;;;;;;;;;4897112;29;20476;-42
2021/06/28 11:58:12;;;;;;;1.23;1.13;;;;;;;;;;4896002;29;20021;-42
2021/06/28 12:00:38;;;;;;;1.45;1.35;;;;;;;;;;4897022;29;20033;-42
2021/06/28 12:03:10;;;;;;;1.67;1.58;;;;;;;;;;4897398;29;20021;-42
2021/06/28 12:05:37;;;;;;;1.55;0.98;;;;;;;;;;4897364;29;20155;-42
2021/06/28 12:08:04;;;;;;;1.70;1.13;;;;;;;;;;4897102;29;20088;-42
2021/06/28 12:10:30;;;;;;;1.50;1.13;;;;;;;;;;4897703;29;20569;-42
2021/06/28 12:12:56;;;;;;;2.53;1.30;;;;;;;;;;4900908;29;20069;-42
2021/06/28 12:15:29;;;;;;;6.18;1.42;;;;;;;;;;4900985;29;20040;-42
2021/06/28 12:17:56;;;;;;;1.05;1.00;;;;;;;;;;4900899;29;20033;-42
2021/06/28 12:20:22;;;;;;;1.20;1.10;;;;;;;;;;4900828;29;20033;-42
2021/06/28 12:22:50;;;;;;;1.45;1.27;;;;;;;;;;4900775;29;20055;-42
2021/06/28 12:25:16;;;;;;;1.75;0.95;;;;;;;;;;4899547;29;20501;-42
2021/06/28 12:27:46;;;;;;;1.17;1.08;;;;;;;;;;4900972;29;20119;-42
2021/06/28 12:30:13;;;;;;;4.97;1.73;;;;;;;;;;4900220;29;20040;-43
2021/06/28 12:32:46;;;;;;;1.20;1.10;;;;;;;;;;4900907;29;20052;-42
2021/06/28 12:35:12;;;;;;;;;;;;;;;;;;4901074;29;20039;-42
2021/06/28 12:37:41;;;;;;;1.30;1.20;;;;;;;;;;4900346;29;20319;-42
2021/06/28 12:40:13;;;;;;;1.92;1.25;;;;;;;;;;4900569;29;20097;-42
2021/06/28 12:42:40;;;;;;;1.60;1.50;;;;;;;;;;4900418;29;20556;-41
2021/06/28 12:45:05;;;;;;;1.38;1.20;;;;;;;;;;4900710;29;20068;-42
2021/06/28 12:47:31;;;;;;;1.00;1.00;;;;;;;;;;4900288;29;20036;-42
2021/06/28 12:49:58;;;;;;;3.90;1.27;;;;;;;;;;4900568;29;20044;-42
2021/06/28 12:52:24;;;;;;;2.67;1.45;;;;;;;;;;4900291;29;20034;-42
2021/06/28 12:55:06;;;;;;;1.23;0.98;;;;;;;;;;4900243;29;20076;-42
2021/06/28 12:57:32;;;;;;;5.13;1.23;;;;;;;;;;4900179;29;20029;-42
2021/06/28 12:59:58;;;;;;;2.60;1.00;;;;;;;;;;4900341;29;20436;-41
2021/06/28 13:02:33;;;;;;;1.50;1.23;;;;;;;;;;4900434;29;20024;-44
2021/06/28 13:05:05;;;;;;;1.45;1.35;;;;;;;;;;4900080;29;20032;-42
2021/06/28 13:07:32;;;;;;;1.30;1.13;;;;;;;;;;4899967;29;20065;-41
2021/06/28 13:09:58;;;;;;;1.23;1.13;;;;;;;;;;4899936;29;20517;-42
2021/06/28 13:12:25;;;;;;;0.75;0.70;;;;;;;;;;4899980;29;20020;-42
2021/06/28 13:14:58;;;;;;;1.90;1.50;;;;;;;;;;4899840;29;20044;-42
2021/06/28 13:17:30;;;;;;;;;;;;;;;;;;4900621;29;20049;-43
2021/06/28 13:19:56;;;;;;;1.70;1.17;;;;;;;;;;4899692;29;20002;-41
2021/06/28 13:22:22;;;;;;;4.85;1.65;;;;;;;;;;4898747;29;20028;-42
2021/06/28 13:24:51;;;;;;;1.73;1.25;;;;;;;;;;4899685;29;20036;-42
2021/06/28 13:27:24;;;;;;;3.40;1.77;;;;;;;;;;4899544;29;20021;-42
2021/06/28 13:29:50;;;;;;;3.53;2.00;;;;;;;;;;4899808;29;20433;-42
2021/06/28 13:32:23;;;;;;;4.38;1.70;;;;;;;;;;4899577;29;20112;-42
2021/06/28 13:34:50;;;;;;;6.55;1.52;;;;;;;;;;4899532;29;20484;-42
2021/06/28 13:37:16;;;;;;;2.10;1.80;;;;;;;;;;4899490;29;20025;-42
2021/06/28 13:40:13;;;;;;;1.48;1.38;;;;;;;;;;4899337;29;20076;-41
2021/06/28 13:42:56;;;;;;;2.58;1.80;;;;;;;;;;4896533;29;20048;-42
2021/06/28 13:45:24;;;;;;;3.10;1.40;;;;;;;;;;4899399;29;20035;-42
2021/06/28 13:47:55;;;;;;;1.67;1.30;;;;;;;;;;4899528;29;20036;-42
2021/06/28 13:50:23;;;;;;;1.83;1.47;;;;;;;;;;4899453;29;20067;-42
2021/06/28 13:52:49;;;;;;;2.63;1.73;;;;;;;;;;4899247;29;20024;-42
2021/06/28 13:55:15;;;;;;;0.85;0.85;;;;;;;;;;4899253;29;20036;-42
2021/06/28 13:57:59;;;;;;;1.00;0.90;;;;;;;;;;4899010;29;20020;-42
2021/06/28 14:00:27;;;;;;;1.55;1.45;;;;;;;;;;4899119;29;20037;-42
2021/06/28 14:02:53;;;;;;;4.22;1.20;;;;;;;;;;4898900;29;20083;-42
2021/06/28 14:05:19;;;;;;;5.30;1.52;;;;;;;;;;4899093;29;20032;-42
2021/06/28 14:07:45;;;;;;;1.35;1.10;;;;;;;;;;4898886;29;20482;-42
2021/06/28 14:10:11;;;;;;;1.65;1.20;;;;;;;;;;4899085;29;20051;-42
2021/06/28 14:12:37;;;;;;;5.32;1.35;;;;;;;;;;4898800;29;20028;-42
2021/06/28 14:15:03;;;;;;;4.43;1.20;;;;;;;;;;4899043;29;20033;-41
2021/06/28 14:17:28;;;;;;;1.20;0.90;;;;;;;;;;4898824;29;20383;-42
2021/06/28 14:19:54;;;;;;;2.28;1.13;;;;;;;;;;4898680;29;20032;-42
2021/06/28 14:22:20;;;;;;;1.65;1.00;;;;;;;;;;4898779;29;20021;-42
2021/06/28 14:24:45;;;;;;;2.63;1.27;;;;;;;;;;4898800;29;20040;-43
2021/06/28 14:27:11;;;;;;;3.78;1.10;;;;;;;;;;4898856;29;20044;-44
2021/06/28 14:29:36;;;;;;;1.50;1.20;;;;;;;;;;4898774;29;20044;-43
2021/06/28 14:32:02;;;;;;;1.33;1.23;;;;;;;;;;4898451;29;20021;-42
2021/06/28 14:34:27;;;;;;;2.03;1.10;;;;;;;;;;4898765;29;20480;-42
2021/06/28 14:36:53;;;;;;;1.85;1.52;;;;;;;;;;4898364;29;20079;-42
2021/06/28 14:39:19;;;;;;;2.10;1.05;;;;;;;;;;4898236;29;20500;-43
2021/06/28 14:41:44;;;;;;;1.42;1.05;;;;;;;;;;4898331;29;20035;-43